Time;durP1;ratioP1;P1;durP2;ratioP2;P2;SDS_P1;SDS_P2;PMS_P1;PMS_P2;Temp;Humidity;BMP_temperature;BMP_pressure;BME280_temperature;BME280_humidity;BME280_pressure;Samples;Min_cycle;Max_cycle;Signal;HPM_P1;HPM_P2
2022/07/29 00:00:06;;;;;;;3.22;1.70;;;15.70;99.90;;;;;;5030178;28;20107;-77
2022/07/29 00:02:31;;;;;;;2.67;1.30;;;15.70;99.90;;;;;;5046889;28;20108;-76
2022/07/29 00:04:58;;;;;;;4.47;1.58;;;15.70;99.90;;;;;;5029148;28;20139;-77
2022/07/29 00:07:24;;;;;;;4.78;1.95;;;15.60;99.90;;;;;;5029994;28;20083;-77
2022/07/29 00:09:50;;;;;;;3.03;1.55;;;15.60;99.90;;;;;;5046361;28;20460;-77
2022/07/29 00:12:15;;;;;;;4.35;1.50;;;15.60;99.90;;;;;;5028327;28;20044;-75
2022/07/29 00:14:41;;;;;;;3.92;1.55;;;15.60;99.90;;;;;;5043332;28;20273;-77
2022/07/29 00:17:07;;;;;;;4.38;1.55;;;15.60;99.90;;;;;;5047770;28;20032;-77
2022/07/29 00:19:34;;;;;;;2.88;1.33;;;15.60;99.90;;;;;;5047119;28;20043;-76
2022/07/29 00:22:00;;;;;;;3.45;1.45;;;15.60;99.90;;;;;;5031060;28;20032;-75
2022/07/29 00:24:25;;;;;;;4.80;1.48;;;15.60;99.90;;;;;;5029693;28;20047;-76
2022/07/29 00:26:51;;;;;;;2.60;1.58;;;15.60;99.90;;;;;;5029482;28;20032;-77
2022/07/29 00:29:17;;;;;;;2.53;1.45;;;15.50;99.90;;;;;;5027017;28;20025;-77
2022/07/29 00:31:43;;;;;;;3.45;1.40;;;15.50;99.90;;;;;;5029985;28;20040;-74
2022/07/29 00:35:43;;;;;;;2.58;1.60;;;15.50;99.90;;;;;;5053207;28;20025;-77
2022/07/29 00:36:54;;;;;;;6.05;1.85;;;15.50;99.90;;;;;;5055603;28;20067;-75
2022/07/29 00:39:20;;;;;;;4.93;2.03;;;15.50;99.90;;;;;;5036298;28;20056;-75
2022/07/29 00:41:46;;;;;;;2.70;1.30;;;15.50;99.90;;;;;;5035033;28;20094;-76
2022/07/29 00:44:11;;;;;;;3.67;1.50;;;15.40;99.90;;;;;;5035885;28;20063;-76
2022/07/29 00:46:37;;;;;;;3.17;1.30;;;15.40;99.90;;;;;;5036876;28;20153;-75
2022/07/29 00:49:03;;;;;;;4.38;1.60;;;15.40;99.90;;;;;;5036304;28;20447;-76
2022/07/29 00:51:30;;;;;;;3.13;1.60;;;15.40;99.90;;;;;;5037181;28;20041;-74
2022/07/29 00:53:56;;;;;;;3.33;1.42;;;15.40;99.90;;;;;;5052063;28;20025;-75
2022/07/29 00:56:22;;;;;;;3.03;1.20;;;15.40;99.90;;;;;;5051496;28;20035;-76
2022/07/29 00:58:50;;;;;;;4.13;1.50;;;15.40;99.90;;;;;;5053890;28;20108;-77
2022/07/29 01:01:15;;;;;;;4.05;1.60;;;15.40;99.90;;;;;;5054965;28;20500;-77
2022/07/29 01:03:41;;;;;;;5.93;1.75;;;15.30;99.90;;;;;;5036360;28;20032;-77
2022/07/29 01:06:07;;;;;;;5.18;1.52;;;15.30;99.90;;;;;;5054048;28;20033;-76
2022/07/29 01:08:33;;;;;;;3.83;1.63;;;15.30;99.90;;;;;;5019714;28;20024;-77
2022/07/29 01:11:00;;;;;;;6.30;1.60;;;15.30;99.90;;;;;;5052653;28;20396;-77
2022/07/29 01:13:26;;;;;;;5.15;1.25;;;15.20;99.90;;;;;;5034179;28;20036;-77
2022/07/29 01:15:58;;;;;;;3.17;1.40;;;15.30;99.90;;;;;;5055197;28;20025;-77
2022/07/29 01:18:31;;;;;;;4.10;1.60;;;15.30;99.90;;;;;;5037784;28;20479;-77
2022/07/29 01:21:18;;;;;;;4.82;1.90;;;15.30;99.90;;;;;;5019562;28;20021;-77
2022/07/29 01:24:10;;;;;;;6.75;1.80;;;15.20;99.90;;;;;;5035911;28;20432;-77
2022/07/29 01:26:52;;;;;;;5.70;1.90;;;15.20;99.90;;;;;;5055182;28;20078;-77
2022/07/29 01:29:26;;;;;;;4.32;1.70;;;15.20;99.90;;;;;;5056143;28;20180;-77
2022/07/29 01:32:03;;;;;;;3.63;1.48;;;15.20;99.90;;;;;;5036359;28;20400;-75
2022/07/29 01:34:52;;;;;;;7.50;1.95;;;15.20;99.90;;;;;;5039118;28;20056;-77
2022/07/29 01:37:52;;;;;;;1.85;1.35;;;15.30;99.90;;;;;;5043551;28;20550;-77
2022/07/29 01:40:24;;;;;;;3.85;1.75;;;15.20;99.90;;;;;;5036837;28;20087;-77
2022/07/29 01:42:53;;;;;;;3.45;1.50;;;15.20;99.90;;;;;;5033387;28;20021;-76
2022/07/29 01:45:28;;;;;;;5.05;1.80;;;15.20;99.90;;;;;;5047664;28;20021;-76
2022/07/29 01:48:15;;;;;;;3.00;1.40;;;15.20;99.90;;;;;;5049969;28;20485;-77
2022/07/29 01:50:51;;;;;;;7.10;2.00;;;15.20;99.90;;;;;;5048905;28;20036;-75
2022/07/29 01:53:29;;;;;;;4.00;2.35;;;15.20;99.90;;;;;;5030157;28;20029;-76
2022/07/29 01:55:56;;;;;;;5.85;2.03;;;15.20;99.90;;;;;;5028912;28;20071;-75
2022/07/29 01:58:24;;;;;;;4.85;2.22;;;15.20;99.90;;;;;;5014977;28;20033;-75
2022/07/29 02:00:51;;;;;;;3.80;1.83;;;15.20;99.90;;;;;;5034560;28;20027;-77
2022/07/29 02:03:18;;;;;;;3.22;1.80;;;15.20;99.90;;;;;;5052597;28;20086;-76
2022/07/29 02:05:46;;;;;;;4.88;2.20;;;15.20;99.90;;;;;;5017036;28;20094;-77
2022/07/29 02:08:14;;;;;;;5.53;2.15;;;15.20;99.90;;;;;;5050785;28;20098;-77
2022/07/29 02:10:42;;;;;;;7.40;2.58;;;15.20;99.90;;;;;;5032615;28;20059;-77
2022/07/29 02:13:09;;;;;;;5.32;2.13;;;15.20;99.90;;;;;;5051027;28;20044;-77
2022/07/29 02:15:36;;;;;;;5.90;1.98;;;15.10;99.90;;;;;;5016763;28;20444;-77
2022/07/29 02:18:07;;;;;;;6.70;1.90;;;15.10;99.90;;;;;;5048192;28;20044;-77
2022/07/29 02:20:33;;;;;;;16.65;2.38;;;15.10;99.90;;;;;;5052829;28;21087;-76
2022/07/29 02:23:00;;;;;;;5.07;1.75;;;15.10;99.90;;;;;;5047708;28;20025;-75
2022/07/29 02:25:27;;;;;;;6.47;2.30;;;15.10;99.90;;;;;;5031066;28;20040;-76
2022/07/29 02:27:54;;;;;;;4.30;1.88;;;15.10;99.90;;;;;;5030987;28;20624;-76
2022/07/29 02:30:22;;;;;;;4.60;1.98;;;15.10;99.90;;;;;;5032862;28;20485;-75
2022/07/29 02:32:49;;;;;;;6.43;2.10;;;15.10;99.90;;;;;;5050880;28;20021;-77
2022/07/29 02:35:16;;;;;;;4.10;2.13;;;15.10;99.90;;;;;;5032088;28;20036;-77
2022/07/29 02:37:44;;;;;;;5.53;2.38;;;15.20;99.90;;;;;;5048312;28;20021;-77
2022/07/29 02:40:13;;;;;;;6.10;2.47;;;15.10;99.90;;;;;;5034994;28;20025;-77
2022/07/29 02:42:43;;;;;;;6.65;2.22;;;15.10;99.90;;;;;;5050687;28;20029;-77
2022/07/29 02:45:10;;;;;;;6.28;2.22;;;15.10;99.90;;;;;;5048632;28;20059;-77
2022/07/29 02:47:43;;;;;;;7.25;2.17;;;15.10;99.90;;;;;;5049500;28;20013;-76
2022/07/29 02:50:15;;;;;;;4.78;2.38;;;15.10;99.90;;;;;;5045611;28;20036;-77
2022/07/29 02:52:52;;;;;;;5.38;2.38;;;15.10;99.90;;;;;;5031108;28;20620;-77
2022/07/29 02:55:23;;;;;;;4.38;2.30;;;15.10;99.90;;;;;;5030165;28;20100;-76
2022/07/29 02:58:02;;;;;;;6.22;2.45;;;15.10;99.90;;;;;;5017400;28;20492;-77
2022/07/29 03:00:31;;;;;;;7.13;2.45;;;15.10;99.90;;;;;;5046025;28;20044;-77
2022/07/29 03:03:00;;;;;;;7.10;2.53;;;15.10;99.90;;;;;;5014716;28;20400;-77
2022/07/29 03:05:27;;;;;;;4.78;2.58;;;15.10;99.90;;;;;;5013686;28;20135;-76
2022/07/29 03:08:00;;;;;;;4.75;2.35;;;15.10;99.90;;;;;;5046796;28;20033;-77
2022/07/29 03:10:26;;;;;;;4.85;2.20;;;15.10;99.90;;;;;;5047407;28;20556;-76
2022/07/29 03:12:52;;;;;;;5.38;1.90;;;15.00;99.90;;;;;;5029038;28;20048;-76
2022/07/29 03:15:19;;;;;;;7.25;2.20;;;15.00;99.90;;;;;;5029818;28;20039;-76
2022/07/29 03:17:46;;;;;;;8.80;2.10;;;15.00;99.90;;;;;;5048659;28;20017;-76
2022/07/29 03:20:12;;;;;;;7.00;2.40;;;15.00;99.90;;;;;;5028432;28;20564;-76
2022/07/29 03:22:43;;;;;;;5.35;2.28;;;15.10;99.90;;;;;;5031972;28;20326;-76
2022/07/29 03:25:16;;;;;;;3.53;2.13;;;15.00;99.90;;;;;;5028671;28;20076;-76
2022/07/29 03:27:43;;;;;;;5.80;2.30;;;15.10;99.90;;;;;;5033055;28;20036;-78
2022/07/29 03:30:10;;;;;;;3.65;2.08;;;15.00;99.90;;;;;;5032582;28;20039;-76
2022/07/29 03:32:36;;;;;;;4.10;1.90;;;15.00;99.90;;;;;;5048436;28;20043;-76
2022/07/29 03:35:02;;;;;;;7.28;2.40;;;15.00;99.90;;;;;;5045873;28;20029;-77
2022/07/29 03:37:30;;;;;;;5.68;2.33;;;15.10;99.90;;;;;;5031298;28;20036;-75
2022/07/29 03:39:57;;;;;;;5.25;1.98;;;15.10;99.90;;;;;;5013129;28;20035;-76
2022/07/29 03:42:26;;;;;;;5.60;2.42;;;15.10;99.90;;;;;;5032804;28;20029;-75
2022/07/29 03:44:53;;;;;;;5.20;2.40;;;15.10;99.90;;;;;;5031762;28;20055;-77
2022/07/29 03:47:25;;;;;;;6.97;2.10;;;15.10;99.90;;;;;;5035551;28;20606;-77
2022/07/29 03:49:54;;;;;;;6.30;2.17;;;15.10;99.90;;;;;;5038742;28;20040;-76
2022/07/29 03:52:20;;;;;;;6.40;2.40;;;15.10;99.90;;;;;;5015953;28;20079;-77
2022/07/29 03:54:47;;;;;;;5.75;2.00;;;15.10;99.90;;;;;;5044599;28;20047;-75
2022/07/29 03:57:15;;;;;;;6.82;2.10;;;15.10;99.90;;;;;;5032238;28;20892;-76
2022/07/29 03:59:42;;;;;;;3.47;2.10;;;15.10;99.90;;;;;;5031005;28;20044;-77
2022/07/29 04:02:10;;;;;;;5.90;2.50;;;15.10;99.90;;;;;;5050196;28;20055;-75
2022/07/29 04:04:36;;;;;;;10.57;2.88;;;15.10;99.90;;;;;;5033017;28;20036;-77
2022/07/29 04:07:03;;;;;;;5.82;2.80;;;15.10;99.90;;;;;;5059821;28;20029;-76
2022/07/29 04:09:29;;;;;;;5.70;2.40;;;15.00;99.90;;;;;;5033681;28;20128;-77
2022/07/29 04:11:55;;;;;;;6.82;2.55;;;15.00;99.90;;;;;;5051777;28;20107;-76
2022/07/29 04:14:20;;;;;;;8.10;2.50;;;15.00;99.90;;;;;;5030154;28;21233;-76
2022/07/29 04:16:46;;;;;;;4.22;2.20;;;15.00;99.90;;;;;;5049136;28;20092;-76
2022/07/29 04:19:12;;;;;;;7.45;2.95;;;15.00;99.90;;;;;;5031279;28;20551;-77
2022/07/29 04:21:39;;;;;;;5.03;2.33;;;15.00;99.90;;;;;;5050092;28;20029;-78
2022/07/29 04:24:06;;;;;;;4.55;2.30;;;15.00;99.90;;;;;;5013902;28;20036;-79
2022/07/29 04:26:32;;;;;;;7.15;2.45;;;15.00;99.90;;;;;;5049814;28;20032;-78
2022/07/29 04:28:57;;;;;;;4.05;2.13;;;15.10;99.90;;;;;;5033225;28;20025;-77
2022/07/29 04:31:23;;;;;;;7.55;2.72;;;15.10;99.90;;;;;;5029242;28;20090;-77
2022/07/29 04:33:49;;;;;;;6.35;2.47;;;15.10;99.90;;;;;;5030143;28;20029;-76
2022/07/29 04:36:15;;;;;;;5.78;2.33;;;15.20;99.90;;;;;;5029316;28;20032;-77
2022/07/29 04:38:40;;;;;;;8.38;2.47;;;15.20;99.90;;;;;;5030066;28;20025;-77
2022/07/29 04:41:08;;;;;;;5.13;2.00;;;15.20;99.90;;;;;;5016647;28;20025;-77
2022/07/29 04:43:34;;;;;;;5.88;2.58;;;15.20;99.90;;;;;;5048592;28;20441;-77
2022/07/29 04:46:00;;;;;;;5.80;2.30;;;15.30;99.90;;;;;;5033202;28;20044;-76
2022/07/29 04:48:26;;;;;;;4.15;2.25;;;15.30;99.90;;;;;;5032726;28;20513;-77
2022/07/29 04:50:52;;;;;;;6.18;2.05;;;15.30;99.90;;;;;;5031736;28;20036;-76
2022/07/29 04:53:18;;;;;;;7.20;2.20;;;15.30;99.90;;;;;;5016539;28;20033;-74
2022/07/29 04:55:44;;;;;;;5.85;2.22;;;15.40;99.90;;;;;;5053273;28;20041;-76
2022/07/29 04:58:10;;;;;;;3.97;2.50;;;15.40;99.90;;;;;;5052072;28;20029;-76
2022/07/29 05:00:36;;;;;;;6.15;2.92;;;15.40;99.90;;;;;;5030709;28;20025;-76
2022/07/29 05:03:03;;;;;;;6.43;2.88;;;15.40;99.90;;;;;;5026464;28;20575;-77
2022/07/29 05:05:29;;;;;;;5.70;2.67;;;15.40;99.90;;;;;;5026816;28;20025;-76
2022/07/29 05:07:55;;;;;;;6.85;2.30;;;15.40;99.90;;;;;;5046660;28;20029;-76
2022/07/29 05:10:22;;;;;;;4.22;2.50;;;15.50;99.90;;;;;;5030910;28;20472;-76
2022/07/29 05:12:48;;;;;;;7.35;2.55;;;15.50;99.90;;;;;;5047768;28;20041;-76
2022/07/29 05:15:14;;;;;;;4.15;2.35;;;15.50;99.90;;;;;;5048687;28;20027;-77
2022/07/29 05:17:39;;;;;;;4.75;2.22;;;15.60;99.90;;;;;;5023243;28;20032;-76
2022/07/29 05:20:07;;;;;;;8.32;2.53;;;15.60;99.90;;;;;;5015899;28;20041;-76
2022/07/29 05:22:32;;;;;;;5.32;2.60;;;15.60;99.90;;;;;;5028522;28;20049;-74
2022/07/29 05:24:58;;;;;;;9.35;3.05;;;15.70;99.90;;;;;;5048272;28;20517;-73
2022/07/29 05:27:24;;;;;;;7.15;2.25;;;15.70;99.90;;;;;;5031293;28;20029;-74
2022/07/29 05:29:50;;;;;;;4.82;2.00;;;15.80;99.90;;;;;;5048792;28;20033;-75
2022/07/29 05:32:16;;;;;;;5.70;2.63;;;15.90;99.90;;;;;;5050092;28;20610;-75
2022/07/29 05:34:42;;;;;;;4.78;2.25;;;15.90;99.90;;;;;;5047406;28;20056;-75
2022/07/29 05:37:09;;;;;;;5.82;2.42;;;16.00;99.90;;;;;;5050878;28;20057;-74
2022/07/29 05:39:35;;;;;;;13.52;3.08;;;15.90;99.90;;;;;;5048365;28;20161;-75
2022/07/29 05:42:00;;;;;;;4.38;2.28;;;16.00;99.90;;;;;;5015807;28;20029;-75
2022/07/29 05:44:26;;;;;;;5.47;2.20;;;16.00;99.90;;;;;;5034713;28;20019;-75
2022/07/29 05:46:52;;;;;;;6.20;2.47;;;16.00;99.90;;;;;;5030907;28;20021;-75
2022/07/29 05:49:18;;;;;;;3.95;2.20;;;15.90;99.90;;;;;;5029820;28;20436;-75
2022/07/29 05:51:44;;;;;;;6.93;2.90;;;16.00;99.90;;;;;;5033877;28;20464;-75
2022/07/29 05:54:10;;;;;;;4.55;2.25;;;15.90;99.90;;;;;;5051193;28;20102;-75
2022/07/29 05:56:36;;;;;;;6.03;2.22;;;16.00;99.90;;;;;;5032801;28;20447;-75
2022/07/29 05:59:03;;;;;;;4.68;2.28;;;16.10;99.90;;;;;;5031847;28;20064;-75
2022/07/29 06:01:28;;;;;;;7.55;2.25;;;16.20;99.90;;;;;;5029964;28;20036;-74
2022/07/29 06:03:54;;;;;;;5.95;2.90;;;16.30;99.90;;;;;;5048424;28;20079;-75
2022/07/29 06:06:20;;;;;;;6.80;2.65;;;16.40;99.90;;;;;;5049008;28;20033;-75
2022/07/29 06:08:45;;;;;;;5.93;2.10;;;16.40;99.90;;;;;;5029730;28;21298;-75
2022/07/29 06:11:11;;;;;;;7.53;2.38;;;16.40;99.90;;;;;;5031544;28;20556;-75
2022/07/29 06:13:37;;;;;;;8.20;2.30;;;16.50;99.90;;;;;;5047971;28;20127;-74
2022/07/29 06:16:03;;;;;;;14.30;2.58;;;16.50;99.90;;;;;;5048900;28;20037;-75
2022/07/29 06:18:29;;;;;;;9.82;3.00;;;16.60;99.90;;;;;;5049433;28;20075;-75
2022/07/29 06:20:55;;;;;;;5.68;2.22;;;16.60;99.90;;;;;;5031928;28;20040;-74
2022/07/29 06:23:21;;;;;;;6.47;2.33;;;16.80;99.90;;;;;;5045761;28;20078;-75
2022/07/29 06:25:48;;;;;;;7.03;2.75;;;16.90;99.90;;;;;;5048311;28;20032;-75
2022/07/29 06:28:14;;;;;;;5.72;2.30;;;16.90;99.90;;;;;;5032421;28;20029;-76
2022/07/29 06:30:39;;;;;;;8.93;2.70;;;17.00;99.90;;;;;;5033811;28;20021;-76
2022/07/29 06:33:05;;;;;;;7.97;2.42;;;17.10;99.90;;;;;;5032852;28;20021;-76
2022/07/29 06:35:35;;;;;;;7.65;2.67;;;17.10;99.90;;;;;;5046752;28;20029;-76
2022/07/29 06:38:01;;;;;;;6.75;2.63;;;17.10;99.90;;;;;;5047136;28;20128;-75
2022/07/29 06:43:11;;;;;;;5.85;2.28;;;17.00;99.90;;;;;;5049298;28;20025;-76
2022/07/29 06:45:40;;;;;;;5.63;2.17;;;17.10;99.90;;;;;;5036691;28;20047;-75
2022/07/29 06:48:06;;;;;;;6.30;2.65;;;17.10;99.90;;;;;;5047781;28;20029;-76
2022/07/29 06:50:32;;;;;;;5.60;2.58;;;17.20;99.90;;;;;;5031830;28;20029;-76
2022/07/29 06:52:57;;;;;;;6.75;2.45;;;17.30;99.90;;;;;;5032465;28;20033;-76
2022/07/29 06:55:24;;;;;;;9.00;2.63;;;17.30;99.90;;;;;;5050371;28;20059;-76
2022/07/29 06:57:50;;;;;;;16.95;2.47;;;17.40;99.90;;;;;;5049934;28;20409;-75
2022/07/29 07:00:16;;;;;;;7.82;2.78;;;17.40;99.90;;;;;;5030941;28;20025;-76
2022/07/29 07:02:41;;;;;;;6.57;2.47;;;17.40;99.90;;;;;;5030504;28;20057;-76
2022/07/29 07:05:07;;;;;;;5.97;2.22;;;17.50;99.90;;;;;;5049623;28;20032;-76
2022/07/29 07:07:33;;;;;;;5.53;2.42;;;17.50;99.90;;;;;;5049139;28;20766;-76
2022/07/29 07:09:58;;;;;;;6.65;2.38;;;17.50;99.90;;;;;;5034300;28;20489;-75
2022/07/29 07:12:25;;;;;;;7.97;2.50;;;17.50;99.90;;;;;;5031886;28;20047;-75
2022/07/29 07:14:50;;;;;;;4.43;2.42;;;17.50;99.90;;;;;;5044216;28;20041;-75
2022/07/29 07:17:16;;;;;;;4.55;2.03;;;17.50;99.90;;;;;;5014691;28;20086;-75
2022/07/29 07:19:42;;;;;;;5.65;2.38;;;17.50;99.90;;;;;;5030289;28;20124;-75
2022/07/29 07:22:07;;;;;;;3.45;2.08;;;17.50;99.90;;;;;;5030199;28;20680;-75
2022/07/29 07:24:33;;;;;;;3.65;2.20;;;17.60;99.90;;;;;;5048918;28;20120;-75
2022/07/29 07:26:59;;;;;;;6.78;2.45;;;17.60;99.90;;;;;;5048684;28;20026;-76
2022/07/29 07:29:24;;;;;;;7.15;2.35;;;17.60;99.90;;;;;;5032230;28;20040;-76
2022/07/29 07:31:50;;;;;;;8.40;2.85;;;17.60;99.90;;;;;;5048476;28;20210;-76
2022/07/29 07:34:16;;;;;;;10.45;2.35;;;17.60;99.90;;;;;;5043942;28;20036;-76
2022/07/29 07:36:41;;;;;;;7.82;2.53;;;17.70;99.90;;;;;;5048795;28;20036;-75
2022/07/29 07:39:07;;;;;;;5.97;2.10;;;17.80;99.90;;;;;;5029369;28;20477;-75
2022/07/29 07:41:33;;;;;;;3.88;2.03;;;17.80;99.90;;;;;;5028423;28;20108;-75
2022/07/29 07:43:59;;;;;;;5.65;2.45;;;17.90;99.90;;;;;;5047026;28;20021;-76
2022/07/29 07:46:24;;;;;;;5.43;2.65;;;17.90;99.90;;;;;;5047898;28;20029;-76
2022/07/29 07:48:52;;;;;;;7.30;2.30;;;18.00;99.90;;;;;;5046532;28;20086;-75
2022/07/29 07:51:18;;;;;;;4.15;2.13;;;18.10;99.90;;;;;;5030466;28;20438;-75
2022/07/29 07:53:44;;;;;;;5.65;2.40;;;18.10;99.90;;;;;;5047742;28;20067;-76
2022/07/29 07:56:10;;;;;;;5.93;2.38;;;18.20;99.90;;;;;;5049423;28;20041;-75
2022/07/29 07:58:36;;;;;;;4.10;2.20;;;18.30;99.90;;;;;;5046499;28;20070;-76
2022/07/29 08:01:02;;;;;;;4.38;2.53;;;18.40;99.90;;;;;;5044874;28;20021;-76
2022/07/29 08:03:28;;;;;;;5.28;2.33;;;18.50;99.90;;;;;;5030127;28;20025;-76
2022/07/29 08:05:54;;;;;;;4.88;2.00;;;18.60;99.90;;;;;;5030745;28;20017;-76
2022/07/29 08:08:20;;;;;;;5.07;2.40;;;18.70;99.90;;;;;;5044357;28;20037;-76
2022/07/29 08:10:52;;;;;;;6.55;2.20;;;18.80;99.90;;;;;;5045280;28;20037;-76
2022/07/29 08:13:19;;;;;;;5.25;2.65;;;18.80;99.90;;;;;;5047260;28;20033;-76
2022/07/29 08:15:45;;;;;;;3.85;1.90;;;18.90;99.90;;;;;;5045550;28;20025;-77
2022/07/29 08:18:12;;;;;;;5.78;2.38;;;18.90;99.90;;;;;;5047683;28;20489;-76
2022/07/29 08:20:38;;;;;;;8.38;2.80;;;18.90;99.90;;;;;;5051797;28;20033;-75
2022/07/29 08:23:06;;;;;;;5.22;2.65;;;18.90;99.90;;;;;;5045866;28;20571;-76
2022/07/29 08:25:38;;;;;;;5.80;2.80;;;19.00;99.90;;;;;;5048323;28;20033;-76
2022/07/29 08:28:05;;;;;;;7.00;2.15;;;19.00;99.90;;;;;;5026267;28;20098;-76
2022/07/29 08:30:32;;;;;;;3.78;2.10;;;19.10;99.90;;;;;;5029695;28;20032;-75
2022/07/29 08:32:58;;;;;;;6.00;2.55;;;19.10;99.90;;;;;;5047955;28;20025;-76
2022/07/29 08:35:24;;;;;;;6.30;2.33;;;19.20;99.90;;;;;;5042863;28;20520;-76
2022/07/29 08:37:51;;;;;;;4.78;2.15;;;19.20;99.90;;;;;;5031213;28;20032;-76
2022/07/29 08:40:17;;;;;;;6.40;2.28;;;19.10;99.90;;;;;;5047145;28;20029;-76
2022/07/29 08:42:43;;;;;;;4.90;2.05;;;19.20;99.90;;;;;;5029953;28;20029;-75
2022/07/29 08:45:09;;;;;;;3.25;1.88;;;19.10;99.90;;;;;;5045053;28;20029;-75
2022/07/29 08:47:39;;;;;;;7.40;2.33;;;19.20;99.90;;;;;;5048792;28;20040;-75
2022/07/29 08:50:09;;;;;;;5.45;2.30;;;19.30;99.90;;;;;;5047257;28;20037;-76
2022/07/29 08:52:37;;;;;;;3.28;1.75;;;19.30;99.60;;;;;;5048240;28;20021;-76
2022/07/29 08:55:05;;;;;;;6.05;2.33;;;19.40;99.80;;;;;;5050566;28;20036;-76
2022/07/29 08:57:32;;;;;;;4.97;2.47;;;19.50;99.80;;;;;;5033509;28;20029;-75
2022/07/29 09:00:00;;;;;;;5.65;2.13;;;19.60;99.60;;;;;;5033578;28;20044;-76
2022/07/29 09:02:29;;;;;;;6.78;2.38;;;19.60;99.20;;;;;;5032845;28;20100;-76
2022/07/29 09:04:58;;;;;;;5.20;2.10;;;19.70;99.20;;;;;;5051456;28;20036;-77
2022/07/29 09:07:24;;;;;;;3.88;2.20;;;19.80;99.10;;;;;;5030980;28;20578;-76
2022/07/29 09:09:50;;;;;;;4.28;2.22;;;19.80;98.60;;;;;;5056318;28;20060;-76
2022/07/29 09:12:16;;;;;;;7.40;1.98;;;20.00;98.70;;;;;;5031872;28;20108;-76
2022/07/29 09:14:42;;;;;;;4.05;1.92;;;20.10;98.80;;;;;;5034098;28;20100;-76
2022/07/29 09:17:08;;;;;;;8.07;1.77;;;20.10;98.10;;;;;;5014939;28;20815;-76
2022/07/29 09:19:36;;;;;;;6.55;2.20;;;20.10;97.80;;;;;;5032455;28;20029;-75
2022/07/29 09:22:05;;;;;;;6.00;2.20;;;20.10;97.70;;;;;;5029362;28;20032;-76
2022/07/29 09:24:41;;;;;;;6.45;1.80;;;20.10;97.60;;;;;;5047260;28;20025;-75
2022/07/29 09:27:28;;;;;;;3.85;1.92;;;20.30;97.80;;;;;;5049408;28;20497;-75
2022/07/29 09:30:09;;;;;;;3.70;1.85;;;20.40;97.80;;;;;;5033986;28;20036;-77
2022/07/29 09:32:54;;;;;;;;;;;20.60;97.30;;;;;;5013130;28;20079;-76
2022/07/29 09:35:22;;;;;;;6.63;2.45;;;20.80;97.00;;;;;;5029605;28;20368;-75
2022/07/29 09:37:48;;;;;;;5.78;1.80;;;20.80;96.20;;;;;;5030539;28;20017;-76
2022/07/29 09:40:17;;;;;;;5.85;1.90;;;20.90;95.60;;;;;;5049794;28;20044;-75
2022/07/29 09:42:43;;;;;;;4.25;1.73;;;20.90;95.50;;;;;;5050268;28;20120;-76
2022/07/29 09:45:11;;;;;;;3.42;2.03;;;21.10;95.50;;;;;;5050714;28;20021;-77
2022/07/29 09:47:50;;;;;;;4.70;1.92;;;21.30;95.50;;;;;;5033248;28;21332;-77
2022/07/29 09:50:19;;;;;;;4.75;1.80;;;21.20;95.20;;;;;;5030759;28;20515;-77
2022/07/29 09:52:53;;;;;;;3.40;1.70;;;21.40;95.20;;;;;;5030691;28;20554;-77
2022/07/29 09:55:19;;;;;;;4.32;1.70;;;21.40;95.70;;;;;;5044158;28;20496;-76
2022/07/29 09:57:46;;;;;;;3.50;1.80;;;21.50;95.80;;;;;;5033788;28;20029;-76
2022/07/29 10:00:17;;;;;;;4.03;1.75;;;21.50;95.10;;;;;;5032733;28;20120;-76
2022/07/29 10:02:45;;;;;;;3.90;1.77;;;21.70;94.90;;;;;;5049560;28;20021;-76
2022/07/29 10:05:23;;;;;;;3.47;1.50;;;21.70;94.80;;;;;;5032036;28;20034;-76
2022/07/29 10:07:54;;;;;;;5.07;1.92;;;21.80;94.10;;;;;;5034881;28;20028;-77
2022/07/29 10:10:31;;;;;;;4.03;1.83;;;21.80;94.20;;;;;;5033342;28;20033;-76
2022/07/29 10:13:02;;;;;;;4.28;1.67;;;21.90;94.10;;;;;;5050809;28;20025;-76
2022/07/29 10:15:31;;;;;;;4.80;1.80;;;21.80;93.10;;;;;;5050208;28;20036;-76
2022/07/29 10:17:59;;;;;;;5.07;1.90;;;21.80;93.40;;;;;;5050149;28;20103;-76
2022/07/29 10:20:26;;;;;;;5.43;2.17;;;21.70;93.10;;;;;;5050158;28;20025;-76
2022/07/29 10:22:53;;;;;;;4.10;1.58;;;21.60;93.30;;;;;;5034735;28;20021;-77
2022/07/29 10:25:19;;;;;;;3.83;1.90;;;21.70;93.60;;;;;;5032935;28;20025;-76
2022/07/29 10:27:47;;;;;;;4.65;1.80;;;21.70;93.60;;;;;;5050808;28;20059;-76
2022/07/29 10:30:15;;;;;;;4.07;1.65;;;21.70;93.60;;;;;;5031530;28;20060;-76
2022/07/29 10:33:15;;;;;;;5.15;1.83;;;21.70;93.20;;;;;;5048902;28;20021;-76
2022/07/29 10:35:47;;;;;;;3.90;1.80;;;21.70;92.30;;;;;;5047173;28;20174;-76
2022/07/29 10:38:41;;;;;;;3.95;2.05;;;21.60;92.50;;;;;;5047989;28;20059;-76
2022/07/29 10:41:29;;;;;;;4.95;1.90;;;21.60;92.60;;;;;;5052665;28;20099;-75
2022/07/29 10:44:01;;;;;;;2.15;1.38;;;21.70;93.10;;;;;;5051685;28;20492;-75
2022/07/29 10:46:28;;;;;;;5.22;1.90;;;21.80;93.30;;;;;;5031527;28;20455;-76
2022/07/29 10:49:09;;;;;;;4.78;1.73;;;21.80;92.70;;;;;;5048748;28;20083;-76
2022/07/29 10:51:55;;;;;;;;;;;21.90;92.50;;;;;;5047971;28;20025;-75
2022/07/29 10:54:39;;;;;;;5.78;1.60;;;22.00;92.30;;;;;;5048554;28;20419;-76
2022/07/29 10:57:26;;;;;;;2.90;1.60;;;22.10;91.70;;;;;;5049612;28;20037;-76
2022/07/29 11:00:14;;;;;;;3.63;1.30;;;22.30;91.70;;;;;;5015087;28;20508;-76
2022/07/29 11:02:39;;;;;;;2.65;1.55;;;22.50;91.80;;;;;;5047927;28;20609;-76
2022/07/29 11:05:16;;;;;;;3.97;1.40;;;22.70;91.50;;;;;;5041981;28;20071;-76
2022/07/29 11:08:11;;;;;;;6.05;1.83;;;23.00;90.90;;;;;;5050349;28;20099;-76
2022/07/29 11:10:37;;;;;;;7.28;1.63;;;23.40;90.00;;;;;;5039045;28;20067;-74
2022/07/29 11:13:03;;;;;;;3.90;1.50;;;23.60;87.30;;;;;;5032505;28;20061;-76
2022/07/29 11:15:32;;;;;;;3.97;1.42;;;23.90;84.90;;;;;;5030119;28;20025;-76
2022/07/29 11:17:58;;;;;;;4.72;1.55;;;24.30;82.50;;;;;;5045710;28;20107;-75
2022/07/29 11:20:33;;;;;;;3.83;1.50;;;24.50;82.00;;;;;;5039283;28;20028;-78
2022/07/29 11:22:59;;;;;;;2.40;1.13;;;24.80;77.20;;;;;;5052313;28;20071;-77
2022/07/29 11:25:25;;;;;;;6.68;1.50;;;25.40;75.20;;;;;;5038600;28;20036;-79
2022/07/29 11:27:53;;;;;;;3.83;1.52;;;26.20;74.20;;;;;;5051787;28;20028;-77
2022/07/29 11:30:19;;;;;;;8.52;1.45;;;26.90;72.40;;;;;;5048236;28;20044;-77
2022/07/29 11:32:47;;;;;;;4.50;1.27;;;27.20;69.80;;;;;;5033236;28;20028;-77
2022/07/29 11:35:22;;;;;;;1.52;1.25;;;27.20;68.40;;;;;;5050238;28;20040;-76
2022/07/29 11:38:22;;;;;;;6.22;1.70;;;27.50;65.70;;;;;;5047151;28;20025;-76
2022/07/29 11:41:26;;;;;;;4.07;1.30;;;27.00;65.20;;;;;;5031917;28;20091;-77
2022/07/29 11:43:53;;;;;;;4.15;1.80;;;27.00;64.40;;;;;;5048385;28;20508;-76
2022/07/29 11:46:48;;;;;;;3.35;1.60;;;27.20;64.50;;;;;;5047239;28;20028;-75
2022/07/29 11:49:25;;;;;;;3.50;1.38;;;27.50;63.20;;;;;;5048122;28;20397;-76
2022/07/29 11:51:52;;;;;;;3.10;1.50;;;27.10;61.90;;;;;;5048513;28;20037;-76
2022/07/29 11:54:25;;;;;;;4.82;1.40;;;26.80;62.40;;;;;;5049295;28;20113;-76
2022/07/29 11:56:52;;;;;;;3.63;1.80;;;26.80;63.10;;;;;;5033388;28;20020;-76
2022/07/29 11:59:19;;;;;;;4.75;1.30;;;26.90;62.60;;;;;;5046533;28;20033;-76
2022/07/29 12:01:53;;;;;;;6.00;1.42;;;27.10;62.80;;;;;;5046764;28;20058;-77
2022/07/29 12:04:18;;;;;;;4.20;1.70;;;27.80;60.60;;;;;;5044709;28;20055;-76
2022/07/29 12:06:52;;;;;;;4.45;1.67;;;28.50;60.10;;;;;;5045069;28;20386;-76
2022/07/29 12:09:18;;;;;;;7.32;2.05;;;28.80;57.50;;;;;;5025940;28;20487;-76
2022/07/29 12:11:45;;;;;;;5.53;1.45;;;28.50;56.90;;;;;;5030427;28;20040;-76
2022/07/29 12:14:28;;;;;;;3.55;1.40;;;29.10;56.50;;;;;;5033778;28;20033;-76
2022/07/29 12:16:54;;;;;;;3.67;1.50;;;30.20;55.00;;;;;;5049725;28;20121;-76
2022/07/29 12:19:20;;;;;;;3.30;1.40;;;30.70;55.20;;;;;;5013493;28;20033;-76
2022/07/29 12:21:46;;;;;;;4.97;1.60;;;31.60;53.70;;;;;;5048241;28;20033;-77
2022/07/29 12:24:12;;;;;;;2.05;1.40;;;31.50;51.90;;;;;;5047315;28;20025;-76
2022/07/29 12:26:52;;;;;;;4.57;1.40;;;31.30;51.70;;;;;;5046889;28;20488;-76
2022/07/29 12:29:18;;;;;;;;;;;30.50;52.60;;;;;;5042950;28;20035;-76
2022/07/29 12:31:44;;;;;;;3.13;1.50;;;30.20;52.90;;;;;;5050193;28;19909;-77
2022/07/29 12:34:15;;;;;;;3.63;1.55;;;30.40;51.90;;;;;;5029453;28;20565;-77
2022/07/29 12:36:43;;;;;;;6.35;1.60;;;30.30;51.30;;;;;;5014131;28;20036;-76
2022/07/29 12:39:10;;;;;;;3.33;1.60;;;31.00;51.10;;;;;;5049855;28;20041;-77
2022/07/29 12:41:36;;;;;;;6.22;1.77;;;31.60;49.90;;;;;;5013936;28;20033;-77
2022/07/29 12:44:02;;;;;;;2.88;1.60;;;32.30;49.90;;;;;;5048549;28;20041;-77
2022/07/29 12:46:28;;;;;;;5.05;1.73;;;32.10;48.90;;;;;;5045055;28;20531;-77
2022/07/29 12:48:54;;;;;;;2.35;1.40;;;32.60;47.60;;;;;;5049670;28;20115;-76
2022/07/29 12:51:39;;;;;;;4.05;1.50;;;32.50;48.30;;;;;;5029700;28;20029;-77
2022/07/29 12:54:10;;;;;;;3.08;1.17;;;31.90;46.80;;;;;;5030085;28;21053;-76
2022/07/29 12:56:40;;;;;;;5.45;1.40;;;31.50;47.50;;;;;;5046148;28;20029;-77
2022/07/29 12:59:32;;;;;;;5.28;1.40;;;31.40;48.70;;;;;;5031089;28;20566;-77